Terminal Aerodrome Forecast
Issued by NWS

Home | Current Version | Previous Version | Text Only | Print | Product List | Glossary On
Versions: 1 2 3 4 5 6 7 8 9 10 11 12 13 14
000
FTUS45 KRIW 011100
TAFCOD
TAF
KCOD 011128Z 0112/0212 23010KT P6SM VCSH SCT040 BKN070
      TEMPO 0113/0116 6SM -SHRA BR FEW025 BKN040
     FM011600 VRB05KT P6SM VCSH FEW020 BKN040
     FM012000 12007KT P6SM SCT050
     FM020400 21007KT P6SM SKC
      AMD LTD TO CLD VIS AND WIND=

USA.gov is the U.S. government's official web portal to all federal, state and local government web resources and services.